Time;durP1;ratioP1;P1;durP2;ratioP2;P2;SDS_P1;SDS_P2;PMS_P1;PMS_P2;Temp;Humidity;BMP_temperature;BMP_pressure;BME280_temperature;BME280_humidity;BME280_pressure;Samples;Min_cycle;Max_cycle;Signal;HPM_P1;HPM_P2
2021/11/21 00:02:59;;;;;;;70.50;36.50;;;7.50;99.90;;;;;;12255564;28;20508;-38
2021/11/21 00:09:01;;;;;;;69.00;37.42;;;7.50;99.90;;;;;;12257548;28;20055;-39
2021/11/21 00:15:08;;;;;;;73.03;36.50;;;7.50;99.90;;;;;;12264699;28;20078;-38
2021/11/21 00:21:10;;;;;;;73.78;38.25;;;7.50;99.90;;;;;;12260843;28;20504;-39
2021/11/21 00:27:12;;;;;;;67.72;35.53;;;7.40;99.90;;;;;;12264113;28;20110;-39
2021/11/21 00:33:14;;;;;;;70.72;36.85;;;7.40;99.90;;;;;;12259767;28;20693;-39
2021/11/21 00:39:16;;;;;;;73.93;37.72;;;7.50;99.90;;;;;;12262565;28;20058;-38
2021/11/21 00:45:19;;;;;;;70.72;37.55;;;7.40;99.90;;;;;;12259882;28;20602;-38
2021/11/21 00:51:21;;;;;;;75.40;38.05;;;7.40;99.90;;;;;;12259833;28;20078;-39
2021/11/21 00:57:23;;;;;;;74.25;39.25;;;7.30;99.90;;;;;;12262809;28;20330;-39
2021/11/21 01:03:26;;;;;;;74.75;37.60;;;7.20;99.90;;;;;;12263205;28;20067;-38
2021/11/21 01:09:28;;;;;;;80.03;39.78;;;7.20;99.90;;;;;;12260383;28;20059;-38
2021/11/21 01:15:32;;;;;;;69.60;37.13;;;7.30;99.90;;;;;;12259117;28;20066;-38
2021/11/21 01:21:34;;;;;;;73.97;37.60;;;7.20;99.90;;;;;;12247180;28;20055;-38
2021/11/21 01:27:36;;;;;;;69.38;36.60;;;7.20;99.90;;;;;;12263105;28;20065;-38
2021/11/21 01:33:39;;;;;;;72.95;36.33;;;7.20;99.90;;;;;;12260517;28;20105;-38
2021/11/21 01:39:41;;;;;;;72.90;36.45;;;7.20;99.90;;;;;;12254104;28;20047;-38
2021/11/21 01:45:43;;;;;;;66.68;32.97;;;7.20;99.90;;;;;;12258489;28;20055;-39
2021/11/21 01:51:47;;;;;;;71.38;33.60;;;7.10;99.90;;;;;;12255907;28;20051;-39
2021/11/21 01:57:50;;;;;;;68.78;33.90;;;7.20;99.90;;;;;;12257677;28;20054;-39
2021/11/21 02:03:52;;;;;;;69.63;33.13;;;7.20;99.90;;;;;;12258877;28;20763;-38
2021/11/21 02:09:54;;;;;;;69.20;32.47;;;7.20;99.90;;;;;;12259948;28;20056;-38
2021/11/21 02:15:56;;;;;;;68.00;33.03;;;7.20;99.90;;;;;;12257097;28;20039;-40
2021/11/21 02:21:58;;;;;;;72.57;34.45;;;7.20;99.90;;;;;;12253760;28;20931;-37
2021/11/21 02:28:01;;;;;;;71.25;33.17;;;7.20;99.90;;;;;;12252855;28;20078;-39
2021/11/21 02:34:03;;;;;;;72.15;34.03;;;7.20;99.90;;;;;;12255359;28;20571;-38
2021/11/21 02:40:05;;;;;;;72.93;33.33;;;7.20;99.90;;;;;;12253862;28;20147;-37
2021/11/21 02:46:08;;;;;;;65.35;31.33;;;7.30;99.90;;;;;;12253523;28;20499;-38
2021/11/21 02:52:10;;;;;;;68.40;32.38;;;7.30;99.90;;;;;;12257260;28;20065;-38
2021/11/21 02:58:12;;;;;;;67.53;31.38;;;7.30;99.90;;;;;;12261712;28;20530;-39
2021/11/21 03:04:14;;;;;;;66.32;31.38;;;7.30;99.90;;;;;;12247282;28;20066;-39
2021/11/21 03:10:19;;;;;;;72.65;33.58;;;7.30;99.90;;;;;;12256277;28;20047;-39
2021/11/21 03:16:21;;;;;;;69.25;31.80;;;7.40;99.90;;;;;;12256303;28;20828;-38
2021/11/21 03:22:24;;;;;;;72.70;32.00;;;7.40;99.90;;;;;;12255585;28;20058;-38
2021/11/21 03:28:25;;;;;;;67.25;30.73;;;7.40;99.90;;;;;;12254519;28;20055;-39
2021/11/21 03:34:29;;;;;;;66.63;29.92;;;7.40;99.90;;;;;;12249149;28;20051;-39
2021/11/21 03:40:31;;;;;;;57.90;27.10;;;7.40;99.90;;;;;;12250117;28;20074;-38
2021/11/21 03:46:34;;;;;;;59.05;27.73;;;7.30;99.90;;;;;;12252664;28;20094;-38
2021/11/21 03:52:37;;;;;;;63.92;27.55;;;7.40;99.90;;;;;;12253736;28;20117;-39
2021/11/21 03:58:40;;;;;;;59.15;27.33;;;7.40;99.90;;;;;;12238530;28;21004;-39
2021/11/21 04:04:41;;;;;;;66.78;29.73;;;7.30;99.90;;;;;;12245521;28;20068;-39
2021/11/21 04:10:44;;;;;;;67.93;29.50;;;7.30;99.90;;;;;;12216707;29;20308;-39
2021/11/21 04:16:47;;;;;;;63.08;29.33;;;7.30;99.90;;;;;;12212912;29;20150;-39
2021/11/21 04:22:49;;;;;;;69.25;29.52;;;7.30;99.90;;;;;;12212905;29;20058;-39
2021/11/21 04:28:52;;;;;;;65.40;28.52;;;7.20;99.90;;;;;;12206699;29;20059;-39
2021/11/21 04:34:53;;;;;;;62.50;28.00;;;7.20;99.90;;;;;;12213941;29;20047;-39
2021/11/21 04:40:55;;;;;;;63.45;27.58;;;7.20;99.90;;;;;;12214885;29;20527;-39
2021/11/21 04:46:58;;;;;;;59.67;26.17;;;7.20;99.90;;;;;;12213196;29;20151;-39
2021/11/21 04:53:00;;;;;;;58.30;26.42;;;7.20;99.90;;;;;;12216432;29;20062;-38
2021/11/21 04:59:05;;;;;;;58.42;26.48;;;7.20;99.90;;;;;;12214904;29;20182;-38
2021/11/21 05:05:08;;;;;;;59.53;26.02;;;7.30;99.90;;;;;;12212352;29;20552;-38
2021/11/21 05:11:10;;;;;;;55.42;26.20;;;7.30;99.90;;;;;;12206570;29;20134;-38
2021/11/21 05:17:12;;;;;;;54.33;25.23;;;7.30;99.90;;;;;;12210948;29;20297;-38
2021/11/21 05:23:14;;;;;;;51.45;24.85;;;7.30;99.90;;;;;;12214424;29;20528;-38
2021/11/21 05:29:16;;;;;;;53.08;25.02;;;7.40;99.90;;;;;;12209155;29;20067;-38
2021/11/21 05:35:19;;;;;;;51.50;24.20;;;7.40;99.90;;;;;;12191789;29;20048;-38
2021/11/21 05:41:21;;;;;;;50.05;23.17;;;7.30;99.90;;;;;;12206337;29;20064;-38
2021/11/21 05:47:23;;;;;;;43.33;22.52;;;7.30;99.90;;;;;;12206296;29;20067;-39
2021/11/21 05:53:25;;;;;;;42.28;20.75;;;7.30;99.90;;;;;;12207511;29;20055;-39
2021/11/21 05:59:28;;;;;;;45.03;21.58;;;7.30;99.90;;;;;;12206911;29;20081;-37
2021/11/21 06:05:30;;;;;;;44.60;20.25;;;7.30;99.90;;;;;;12211012;29;20111;-39
2021/11/21 06:11:32;;;;;;;46.03;20.35;;;7.30;99.90;;;;;;12213474;29;20142;-38
2021/11/21 06:17:35;;;;;;;41.55;20.48;;;7.30;99.90;;;;;;12213282;29;20058;-39
2021/11/21 06:23:37;;;;;;;49.10;22.35;;;7.30;99.90;;;;;;12211765;29;20066;-38
2021/11/21 06:29:40;;;;;;;45.42;19.40;;;7.30;99.90;;;;;;12210371;29;20103;-39
2021/11/21 06:35:42;;;;;;;39.50;18.50;;;7.30;99.90;;;;;;12205125;29;20126;-39
2021/11/21 06:41:44;;;;;;;37.63;17.75;;;7.30;99.90;;;;;;12204519;29;20805;-38
2021/11/21 06:47:46;;;;;;;34.63;17.17;;;7.40;99.90;;;;;;12214673;29;20098;-39
2021/11/21 06:53:49;;;;;;;34.03;15.45;;;7.40;99.90;;;;;;12212350;29;20048;-38
2021/11/21 06:59:51;;;;;;;34.65;15.20;;;7.30;99.90;;;;;;12209954;29;20146;-38
2021/11/21 07:05:53;;;;;;;29.42;14.13;;;7.30;99.90;;;;;;12210291;29;20551;-38
2021/11/21 07:11:55;;;;;;;31.33;14.50;;;7.40;99.90;;;;;;12214851;29;20051;-38
2021/11/21 07:17:58;;;;;;;28.88;13.45;;;7.40;99.90;;;;;;12216532;29;20047;-39
2021/11/21 07:24:06;;;;;;;26.77;13.60;;;7.40;99.90;;;;;;12214701;29;20139;-39
2021/11/21 07:30:15;;;;;;;28.80;14.50;;;7.40;99.90;;;;;;12218189;29;20118;-39
2021/11/21 07:36:17;;;;;;;21.88;11.23;;;7.50;99.90;;;;;;12227427;29;20564;-39
2021/11/21 07:42:24;;;;;;;24.42;12.02;;;7.50;99.90;;;;;;12226549;29;20087;-38
2021/11/21 07:48:39;;;;;;;24.73;12.68;;;7.40;99.90;;;;;;12241957;29;20051;-39
2021/11/21 07:54:53;;;;;;;20.73;10.60;;;7.50;99.90;;;;;;12223803;29;20075;-39
2021/11/21 08:01:06;;;;;;;20.27;10.63;;;7.50;99.90;;;;;;12239156;29;20054;-38
2021/11/21 08:07:14;;;;;;;16.48;9.05;;;7.50;99.90;;;;;;12230760;29;20060;-39
2021/11/21 08:13:18;;;;;;;16.00;8.27;;;7.60;99.90;;;;;;12218281;29;20495;-39
2021/11/21 08:19:21;;;;;;;17.02;8.48;;;7.60;99.90;;;;;;12217383;29;20052;-38
2021/11/21 08:25:22;;;;;;;13.48;7.63;;;7.60;99.90;;;;;;12218683;29;20542;-40
2021/11/21 08:31:25;;;;;;;15.38;8.35;;;7.70;99.90;;;;;;12218996;29;20485;-39
2021/11/21 08:37:32;;;;;;;13.90;8.07;;;7.70;99.90;;;;;;12218576;29;20057;-38
2021/11/21 08:43:35;;;;;;;12.57;7.63;;;7.80;99.90;;;;;;12196774;29;20063;-39
2021/11/21 08:49:38;;;;;;;14.13;8.23;;;7.90;99.90;;;;;;12224465;29;20566;-38
2021/11/21 08:55:42;;;;;;;13.10;8.30;;;8.00;99.90;;;;;;12226284;29;20045;-39
2021/11/21 09:01:50;;;;;;;12.95;7.60;;;8.00;99.90;;;;;;12224650;28;20054;-40
2021/11/21 09:08:00;;;;;;;13.95;8.63;;;8.10;99.90;;;;;;12230886;29;20464;-40
2021/11/21 09:14:06;;;;;;;14.02;8.45;;;8.00;99.90;;;;;;12225323;29;20055;-39
2021/11/21 09:20:14;;;;;;;14.68;8.65;;;8.20;99.90;;;;;;12230346;29;20051;-38
2021/11/21 09:26:18;;;;;;;15.48;8.73;;;8.10;99.90;;;;;;12229485;29;20060;-41
2021/11/21 09:32:21;;;;;;;13.93;8.68;;;8.10;99.90;;;;;;12219473;29;20095;-39
2021/11/21 09:38:24;;;;;;;14.27;8.40;;;8.10;99.90;;;;;;12230361;29;20084;-40
2021/11/21 09:44:28;;;;;;;15.27;8.48;;;8.20;99.90;;;;;;12226000;29;20055;-38
2021/11/21 09:50:33;;;;;;;14.30;9.13;;;8.10;99.90;;;;;;12220991;29;20059;-38
2021/11/21 09:56:38;;;;;;;14.88;8.45;;;8.20;99.90;;;;;;12223025;29;20135;-38
2021/11/21 10:02:58;;;;;;;15.73;8.77;;;8.30;99.90;;;;;;12221951;29;20049;-38
2021/11/21 10:09:10;;;;;;;16.60;8.80;;;8.40;99.90;;;;;;12229709;28;20504;-38
2021/11/21 10:15:24;;;;;;;15.25;8.38;;;8.60;99.90;;;;;;12225428;29;20439;-39
2021/11/21 10:22:04;;;;;;;13.68;8.35;;;8.60;99.90;;;;;;12224349;29;20085;-39
2021/11/21 10:28:32;;;;;;;20.80;9.38;;;8.80;99.90;;;;;;12224012;29;20567;-39
2021/11/21 10:35:08;;;;;;;16.23;7.85;;;9.00;99.90;;;;;;12223344;29;20126;-38
2021/11/21 10:41:30;;;;;;;16.35;8.32;;;9.10;99.90;;;;;;12224863;29;20131;-39
2021/11/21 10:47:54;;;;;;;15.98;7.72;;;9.10;99.90;;;;;;12230636;29;20055;-38
2021/11/21 10:54:21;;;;;;;23.70;13.02;;;9.10;99.90;;;;;;12216006;29;20061;-39
2021/11/21 11:00:35;;;;;;;14.77;6.18;;;8.90;99.90;;;;;;12232001;29;20459;-39
2021/11/21 11:06:49;;;;;;;21.63;8.85;;;8.90;99.90;;;;;;12230314;29;20083;-38
2021/11/21 11:13:16;;;;;;;12.77;3.75;;;9.00;99.90;;;;;;12224155;29;20080;-39
2021/11/21 11:19:29;;;;;;;14.38;4.03;;;9.00;99.90;;;;;;12231837;29;20488;-39
2021/11/21 11:25:42;;;;;;;17.70;4.10;;;9.20;99.90;;;;;;12219143;29;20440;-39
2021/11/21 11:32:19;;;;;;;12.82;3.15;;;9.30;99.90;;;;;;12223929;29;20052;-39
2021/11/21 11:38:30;;;;;;;10.38;2.50;;;9.30;99.90;;;;;;12224983;29;20051;-37
2021/11/21 11:44:53;;;;;;;14.85;3.05;;;9.30;99.90;;;;;;12209786;29;20526;-38
2021/11/21 11:50:55;;;;;;;14.52;3.40;;;9.10;99.90;;;;;;12215616;29;20047;-39
2021/11/21 11:57:05;;;;;;;13.83;2.90;;;9.30;99.90;;;;;;12208612;29;20106;-40
2021/11/21 12:03:39;;;;;;;12.00;2.25;;;9.40;99.90;;;;;;12220630;29;20076;-39
2021/11/21 12:10:03;;;;;;;8.20;2.08;;;9.20;99.90;;;;;;12218134;29;20052;-38
2021/11/21 12:16:16;;;;;;;13.85;2.70;;;9.30;99.90;;;;;;12215409;29;20122;-39
2021/11/21 12:22:32;;;;;;;13.77;2.28;;;9.20;99.90;;;;;;12221290;29;20076;-38
2021/11/21 12:28:59;;;;;;;12.43;1.67;;;9.30;99.90;;;;;;12216598;29;20504;-39
2021/11/21 12:35:27;;;;;;;10.27;2.30;;;9.30;99.90;;;;;;12219646;29;20130;-38
2021/11/21 12:41:32;;;;;;;11.50;2.30;;;9.30;99.90;;;;;;12222151;29;20085;-39
2021/11/21 12:47:36;;;;;;;12.68;1.98;;;9.30;99.90;;;;;;12233609;29;20144;-39
2021/11/21 12:53:38;;;;;;;10.03;1.80;;;9.10;99.90;;;;;;12223918;29;20059;-39
2021/11/21 12:59:54;;;;;;;6.38;1.67;;;8.90;99.90;;;;;;12220667;29;20312;-38
2021/11/21 13:06:07;;;;;;;12.45;2.13;;;9.10;99.90;;;;;;12244544;28;20955;-38
2021/11/21 13:12:34;;;;;;;11.30;1.98;;;9.00;99.90;;;;;;12259984;28;20142;-40
2021/11/21 13:18:41;;;;;;;12.30;1.95;;;8.80;99.90;;;;;;12275002;28;20052;-38
2021/11/21 13:24:45;;;;;;;11.20;1.83;;;8.80;99.90;;;;;;12273521;28;20075;-39
2021/11/21 13:30:52;;;;;;;12.40;2.33;;;8.80;99.90;;;;;;12272480;28;20054;-39
2021/11/21 13:37:07;;;;;;;10.82;1.98;;;8.80;99.90;;;;;;12272247;28;20093;-39
2021/11/21 13:43:18;;;;;;;9.48;1.42;;;9.00;99.90;;;;;;12245859;28;20043;-38
2021/11/21 13:49:46;;;;;;;10.77;1.73;;;8.90;99.90;;;;;;12256658;28;20109;-39
2021/11/21 13:56:13;;;;;;;8.98;1.67;;;9.00;99.90;;;;;;12264276;28;20096;-38
2021/11/21 14:02:38;;;;;;;8.48;2.00;;;8.90;99.90;;;;;;12268487;28;20043;-39
2021/11/21 14:08:44;;;;;;;11.50;1.90;;;8.80;99.90;;;;;;12224916;28;20086;-39
2021/11/21 14:15:04;;;;;;;17.17;2.58;;;8.70;99.90;;;;;;12227028;29;20098;-38
2021/11/21 14:21:11;;;;;;;12.10;3.00;;;8.70;99.90;;;;;;12221150;29;20048;-38
2021/11/21 14:27:16;;;;;;;16.42;2.35;;;8.80;99.90;;;;;;12224180;29;20047;-39
2021/11/21 14:33:27;;;;;;;14.10;2.78;;;8.70;99.90;;;;;;12204054;29;20052;-38
2021/11/21 14:39:36;;;;;;;13.45;4.10;;;8.60;99.90;;;;;;12218259;29;20128;-39
2021/11/21 14:45:38;;;;;;;11.75;2.05;;;8.50;99.90;;;;;;12219576;29;20484;-39
2021/11/21 14:51:43;;;;;;;12.77;2.03;;;8.40;99.90;;;;;;12223138;29;20110;-38
2021/11/21 14:57:50;;;;;;;10.07;1.67;;;8.20;99.90;;;;;;12219228;29;20067;-39
2021/11/21 15:04:02;;;;;;;12.02;2.05;;;8.10;99.90;;;;;;12206976;28;20043;-39
2021/11/21 15:10:17;;;;;;;12.32;2.20;;;7.90;99.90;;;;;;12275220;28;20095;-38
2021/11/21 15:16:28;;;;;;;15.85;2.53;;;7.60;99.90;;;;;;12270900;28;20050;-38
2021/11/21 15:22:35;;;;;;;10.50;2.20;;;7.30;99.90;;;;;;12255381;28;20051;-39
2021/11/21 15:28:47;;;;;;;21.90;3.88;;;7.20;99.90;;;;;;12278013;28;20048;-39
2021/11/21 15:35:00;;;;;;;13.25;3.38;;;7.00;99.90;;;;;;12272668;28;20419;-39
2021/11/21 15:41:15;;;;;;;14.45;2.50;;;6.90;99.90;;;;;;12277594;28;20098;-39
2021/11/21 15:47:29;;;;;;;21.50;4.15;;;6.90;99.90;;;;;;12259719;28;20047;-39
2021/11/21 15:53:45;;;;;;;17.95;4.43;;;6.70;99.90;;;;;;12271186;28;20052;-39
2021/11/21 15:59:52;;;;;;;14.88;4.05;;;6.70;99.90;;;;;;12278726;28;20051;-38
2021/11/21 16:05:58;;;;;;;13.05;2.85;;;6.60;99.90;;;;;;12273122;28;20412;-38
2021/11/21 16:12:05;;;;;;;20.08;2.83;;;6.70;99.90;;;;;;12280246;28;20061;-39
2021/11/21 16:18:17;;;;;;;10.73;2.50;;;6.90;99.90;;;;;;12278253;28;20043;-39
2021/11/21 16:24:33;;;;;;;11.63;3.20;;;7.20;99.90;;;;;;12276396;28;20083;-38
2021/11/21 16:30:35;;;;;;;13.52;3.03;;;7.20;99.90;;;;;;12270417;28;20055;-40
2021/11/21 16:36:43;;;;;;;9.77;2.50;;;7.00;99.90;;;;;;12271810;28;20058;-39
2021/11/21 16:42:52;;;;;;;18.40;2.90;;;6.80;99.90;;;;;;12261705;28;20055;-38
2021/11/21 16:49:05;;;;;;;11.98;2.80;;;6.80;99.90;;;;;;12270125;28;20054;-40
2021/11/21 16:55:11;;;;;;;9.65;2.72;;;6.80;99.90;;;;;;12268124;28;20132;-39
2021/11/21 17:01:16;;;;;;;9.30;2.60;;;6.60;99.90;;;;;;12261167;28;20047;-38
2021/11/21 17:07:21;;;;;;;12.05;2.85;;;6.60;99.90;;;;;;12229847;28;20437;-39
2021/11/21 17:13:23;;;;;;;13.05;3.00;;;6.60;99.90;;;;;;12219002;29;20945;-39
2021/11/21 17:19:26;;;;;;;12.55;3.42;;;6.50;99.90;;;;;;12217700;29;20052;-39
2021/11/21 17:25:29;;;;;;;10.60;3.30;;;6.20;99.90;;;;;;12216144;29;20048;-39
2021/11/21 17:31:37;;;;;;;10.75;2.50;;;6.10;99.90;;;;;;12218296;29;20082;-38
2021/11/21 17:37:39;;;;;;;8.07;1.83;;;6.00;99.90;;;;;;12219936;29;20056;-38
2021/11/21 17:43:42;;;;;;;4.93;1.58;;;5.90;99.90;;;;;;12210048;29;20079;-38
2021/11/21 17:49:47;;;;;;;7.68;2.10;;;6.00;99.90;;;;;;12212946;29;20051;-39
2021/11/21 17:55:50;;;;;;;7.15;2.20;;;5.70;99.90;;;;;;12218471;29;20131;-39
2021/11/21 18:01:52;;;;;;;8.40;3.05;;;5.50;99.90;;;;;;12231828;29;20114;-38
2021/11/21 18:07:55;;;;;;;8.45;2.88;;;5.20;99.90;;;;;;12243296;28;20094;-38
2021/11/21 18:13:57;;;;;;;8.55;2.97;;;5.10;99.90;;;;;;12264224;28;20190;-39
2021/11/21 18:20:05;;;;;;;9.77;2.38;;;5.10;99.90;;;;;;12264363;28;20055;-38
2021/11/21 18:26:16;;;;;;;7.15;2.45;;;5.10;99.90;;;;;;12273779;28;20063;-39
2021/11/21 18:32:30;;;;;;;6.68;2.40;;;5.10;99.90;;;;;;12273730;28;20174;-37
2021/11/21 18:38:41;;;;;;;8.35;3.10;;;5.10;99.90;;;;;;12273457;28;20066;-38
2021/11/21 18:44:50;;;;;;;9.05;3.40;;;5.00;99.90;;;;;;12265931;28;20051;-38
2021/11/21 18:51:00;;;;;;;6.75;2.83;;;5.00;99.90;;;;;;12265474;28;20142;-37
2021/11/21 18:57:08;;;;;;;6.10;2.22;;;4.70;99.90;;;;;;12268582;28;20055;-39
2021/11/21 19:03:10;;;;;;;7.90;2.38;;;4.80;99.90;;;;;;12263595;28;20646;-39
2021/11/21 19:09:15;;;;;;;7.63;2.30;;;4.70;99.90;;;;;;12191393;29;20082;-38
2021/11/21 19:15:18;;;;;;;14.27;2.83;;;4.70;99.90;;;;;;12213054;29;20056;-39
2021/11/21 19:21:20;;;;;;;8.63;2.57;;;4.70;99.90;;;;;;12213830;29;20048;-38
2021/11/21 19:27:23;;;;;;;5.95;2.30;;;4.80;99.90;;;;;;12208503;29;20100;-39
2021/11/21 19:33:27;;;;;;;7.20;2.40;;;4.90;99.90;;;;;;12210547;29;20052;-38
2021/11/21 19:39:31;;;;;;;8.80;1.95;;;4.70;99.90;;;;;;12212763;29;21521;-38
2021/11/21 19:45:34;;;;;;;10.20;2.47;;;4.80;99.90;;;;;;12222578;29;20063;-38
2021/11/21 19:51:37;;;;;;;10.15;2.22;;;4.80;99.90;;;;;;12224184;29;20484;-39
2021/11/21 19:57:41;;;;;;;8.65;2.08;;;4.70;99.90;;;;;;12224381;29;20055;-39
2021/11/21 20:03:50;;;;;;;10.70;2.58;;;4.60;99.90;;;;;;12228880;28;20047;-39
2021/11/21 20:09:53;;;;;;;8.13;2.67;;;4.70;99.90;;;;;;12277663;28;20400;-39
2021/11/21 20:15:55;;;;;;;8.02;2.40;;;4.80;99.90;;;;;;12268768;28;20061;-39
2021/11/21 20:21:58;;;;;;;9.25;2.70;;;4.80;99.90;;;;;;12269672;28;20047;-39
2021/11/21 20:28:05;;;;;;;13.32;3.00;;;4.90;99.90;;;;;;12269582;28;20083;-38
2021/11/21 20:34:40;;;;;;;11.20;2.67;;;5.00;99.90;;;;;;12260682;28;20058;-38
2021/11/21 20:40:45;;;;;;;6.68;2.30;;;5.10;99.90;;;;;;12248351;28;20054;-39
2021/11/21 20:46:47;;;;;;;12.30;2.95;;;5.30;99.90;;;;;;12267659;28;20062;-37
2021/11/21 20:52:50;;;;;;;9.98;2.80;;;5.30;99.90;;;;;;12254133;28;20052;-39
2021/11/21 20:58:53;;;;;;;8.45;2.58;;;5.40;99.90;;;;;;12256173;28;20121;-39
2021/11/21 21:04:55;;;;;;;16.02;3.22;;;5.40;99.90;;;;;;12266479;28;20074;-38
2021/11/21 21:10:57;;;;;;;10.55;2.90;;;5.50;99.90;;;;;;12265390;28;20044;-39
2021/11/21 21:17:00;;;;;;;13.85;3.80;;;5.60;99.90;;;;;;12261301;28;20801;-38
2021/11/21 21:23:03;;;;;;;9.55;3.00;;;5.60;99.90;;;;;;12257281;28;20780;-38
2021/11/21 21:29:11;;;;;;;16.05;3.78;;;5.70;99.90;;;;;;12269374;28;20055;-39
2021/11/21 21:35:13;;;;;;;9.00;2.65;;;5.70;99.90;;;;;;12260425;28;20047;-39
2021/11/21 21:41:17;;;;;;;9.13;2.63;;;5.70;99.90;;;;;;12260691;28;20040;-39
2021/11/21 21:47:19;;;;;;;14.52;3.03;;;5.70;99.90;;;;;;12259125;28;20106;-39
2021/11/21 21:53:26;;;;;;;11.25;3.33;;;5.70;99.90;;;;;;12265137;28;20083;-38
2021/11/21 21:59:30;;;;;;;9.70;3.33;;;5.80;99.90;;;;;;12259413;28;20519;-37
2021/11/21 22:05:34;;;;;;;8.80;3.33;;;5.90;99.90;;;;;;12259946;28;20517;-39
2021/11/21 22:11:36;;;;;;;11.18;3.42;;;5.80;99.90;;;;;;12258994;28;20076;-38
2021/11/21 22:17:42;;;;;;;8.13;3.40;;;5.80;99.90;;;;;;12263649;28;20569;-38
2021/11/21 22:23:44;;;;;;;11.63;3.20;;;5.70;99.90;;;;;;12267480;28;20054;-39
2021/11/21 22:29:48;;;;;;;12.95;3.75;;;5.80;99.90;;;;;;12251573;28;20556;-38
2021/11/21 22:35:50;;;;;;;6.82;3.17;;;5.90;99.90;;;;;;12261974;28;20054;-38
2021/11/21 22:41:55;;;;;;;13.40;4.60;;;5.80;99.90;;;;;;12261880;28;20134;-39
2021/11/21 22:47:58;;;;;;;16.02;5.03;;;5.90;99.90;;;;;;12257882;28;20070;-38
2021/11/21 22:54:00;;;;;;;15.90;5.70;;;5.80;99.90;;;;;;12261328;28;20114;-38
2021/11/21 23:00:09;;;;;;;17.45;7.32;;;5.80;99.90;;;;;;12255478;28;20062;-39
2021/11/21 23:06:12;;;;;;;12.98;7.55;;;5.80;99.90;;;;;;12262546;28;20063;-37
2021/11/21 23:12:14;;;;;;;15.95;8.00;;;5.80;99.90;;;;;;12261867;28;20053;-38
2021/11/21 23:18:18;;;;;;;18.67;7.95;;;5.80;99.90;;;;;;12257397;28;20051;-39
2021/11/21 23:24:20;;;;;;;14.43;7.88;;;5.70;99.90;;;;;;12261850;28;20142;-39
2021/11/21 23:30:23;;;;;;;11.85;7.57;;;5.70;99.90;;;;;;12267918;28;20498;-39
2021/11/21 23:36:25;;;;;;;11.30;7.82;;;5.60;99.90;;;;;;12262981;28;20058;-39
2021/11/21 23:42:27;;;;;;;10.13;7.00;;;5.60;99.90;;;;;;12260208;28;20606;-38
2021/11/21 23:48:29;;;;;;;12.27;7.07;;;5.60;99.90;;;;;;12251948;28;20047;-39
2021/11/21 23:54:34;;;;;;;12.27;8.18;;;5.60;99.90;;;;;;12256331;28;20055;-39
